Time;durP1;ratioP1;P1;durP2;ratioP2;P2;SDS_P1;SDS_P2;PMS_P1;PMS_P2;Temp;Humidity;BMP_temperature;BMP_pressure;BME280_temperature;BME280_humidity;BME280_pressure;Samples;Min_cycle;Max_cycle;Signal;HPM_P1;HPM_P2
2022/04/06 00:00:40;;;;;;;4.649999;4.05;;;;;;;7.75;100;94630.98;;;;
2022/04/06 00:01:40;;;;;;;4.649999;4.05;;;;;;;7.75;100;94630.98;;;;
2022/04/06 00:02:41;;;;;;;4.649999;4.05;;;;;;;7.75;100;94630.98;;;;
2022/04/06 00:03:43;;;;;;;4.649999;4.05;;;;;;;7.75;100;94630.98;;;;
2022/04/06 00:04:43;;;;;;;4.5;4.099999;;;;;;;7.6;100;94620.39;;;;
2022/04/06 00:05:44;;;;;;;4.5;4.099999;;;;;;;7.6;100;94620.39;;;;
2022/04/06 00:06:45;;;;;;;4.5;4.099999;;;;;;;7.6;100;94620.39;;;;
2022/04/06 00:07:45;;;;;;;4.5;4.099999;;;;;;;7.6;100;94620.39;;;;
2022/04/06 00:08:45;;;;;;;4.5;4.099999;;;;;;;7.6;100;94620.39;;;;
2022/04/06 00:09:46;;;;;;;4.5;4.099999;;;;;;;7.6;100;94620.39;;;;
2022/04/06 00:10:46;;;;;;;4.5;4.099999;;;;;;;7.6;100;94620.39;;;;
2022/04/06 00:11:47;;;;;;;4.5;4.099999;;;;;;;7.6;100;94620.39;;;;
2022/04/06 00:12:48;;;;;;;4.5;4.099999;;;;;;;7.6;100;94620.39;;;;
2022/04/06 00:13:48;;;;;;;4.5;4.099999;;;;;;;7.6;100;94620.39;;;;
2022/04/06 00:14:49;;;;;;;5.95;4.6;;;;;;;7.63;100;94614.43;;;;
2022/04/06 00:15:49;;;;;;;5.95;4.6;;;;;;;7.63;100;94614.43;;;;
2022/04/06 00:16:50;;;;;;;5.95;4.6;;;;;;;7.63;100;94614.43;;;;
2022/04/06 00:17:50;;;;;;;5.95;4.6;;;;;;;7.63;100;94614.43;;;;
2022/04/06 00:18:51;;;;;;;5.95;4.6;;;;;;;7.63;100;94614.43;;;;
2022/04/06 00:19:52;;;;;;;5.95;4.6;;;;;;;7.63;100;94614.43;;;;
2022/04/06 00:20:52;;;;;;;5.95;4.6;;;;;;;7.63;100;94614.43;;;;
2022/04/06 00:21:53;;;;;;;5.95;4.6;;;;;;;7.63;100;94614.43;;;;
2022/04/06 00:22:53;;;;;;;5.95;4.6;;;;;;;7.63;100;94614.43;;;;
2022/04/06 00:23:54;;;;;;;5.95;4.6;;;;;;;7.63;100;94614.43;;;;
2022/04/06 00:24:56;;;;;;;5.95;4.6;;;;;;;7.63;100;94614.43;;;;
2022/04/06 00:25:57;;;;;;;4.95;4.45;;;;;;;7.73;100;94609.41;;;;
2022/04/06 00:26:57;;;;;;;4.95;4.45;;;;;;;7.73;100;94609.41;;;;
2022/04/06 00:27:58;;;;;;;4.95;4.45;;;;;;;7.73;100;94609.41;;;;
2022/04/06 00:28:58;;;;;;;4.95;4.45;;;;;;;7.73;100;94609.41;;;;
2022/04/06 00:29:59;;;;;;;4.95;4.45;;;;;;;7.73;100;94609.41;;;;
2022/04/06 00:31:00;;;;;;;4.95;4.45;;;;;;;7.73;100;94609.41;;;;
2022/04/06 00:32:00;;;;;;;4.95;4.45;;;;;;;7.73;100;94609.41;;;;
2022/04/06 00:33:01;;;;;;;4.95;4.45;;;;;;;7.73;100;94609.41;;;;
2022/04/06 00:34:02;;;;;;;4.95;4.45;;;;;;;7.73;100;94609.41;;;;
2022/04/06 00:35:35;;;;;;;4.95;4.45;;;;;;;7.73;100;94609.41;;;;
2022/04/06 00:36:35;;;;;;;6.249999;5.100001;;;;;;;7.79;100;94608.48;;;;
2022/04/06 00:37:36;;;;;;;6.249999;5.100001;;;;;;;7.79;100;94608.48;;;;
2022/04/06 00:38:37;;;;;;;6.249999;5.100001;;;;;;;7.79;100;94608.48;;;;
2022/04/06 00:39:37;;;;;;;6.249999;5.100001;;;;;;;7.79;100;94608.48;;;;
2022/04/06 00:40:38;;;;;;;6.249999;5.100001;;;;;;;7.79;100;94608.48;;;;
2022/04/06 00:41:39;;;;;;;6.249999;5.100001;;;;;;;7.79;100;94608.48;;;;
2022/04/06 00:42:39;;;;;;;6.249999;5.100001;;;;;;;7.79;100;94608.48;;;;
2022/04/06 00:43:40;;;;;;;6.249999;5.100001;;;;;;;7.79;100;94608.48;;;;
2022/04/06 00:44:40;;;;;;;6.249999;5.100001;;;;;;;7.79;100;94608.48;;;;
2022/04/06 00:45:41;;;;;;;6.249999;5.100001;;;;;;;7.79;100;94608.48;;;;
2022/04/06 00:46:43;;;;;;;6.249999;5.100001;;;;;;;7.79;100;94608.48;;;;
2022/04/06 00:47:45;;;;;;;5.5;4.65;;;;;;;7.79;100;94601.64;;;;
2022/04/06 00:48:46;;;;;;;5.5;4.65;;;;;;;7.79;100;94601.64;;;;
2022/04/06 00:49:47;;;;;;;5.5;4.65;;;;;;;7.79;100;94601.64;;;;
2022/04/06 00:50:48;;;;;;;5.5;4.65;;;;;;;7.79;100;94601.64;;;;
2022/04/06 00:51:48;;;;;;;5.5;4.65;;;;;;;7.79;100;94601.64;;;;
2022/04/06 00:52:55;;;;;;;5.5;4.65;;;;;;;7.79;100;94601.64;;;;
2022/04/06 00:53:57;;;;;;;5.5;4.65;;;;;;;7.79;100;94601.64;;;;
2022/04/06 00:54:58;;;;;;;5.5;4.65;;;;;;;7.79;100;94601.64;;;;
2022/04/06 00:55:59;;;;;;;5.5;4.65;;;;;;;7.79;100;94601.64;;;;
2022/04/06 00:57:00;;;;;;;5.5;4.65;;;;;;;7.79;100;94601.64;;;;
2022/04/06 00:58:01;;;;;;;5.400001;4.900001;;;;;;;7.72;100;94594.22;;;;
2022/04/06 00:59:02;;;;;;;5.400001;4.900001;;;;;;;7.72;100;94594.22;;;;
2022/04/06 01:00:03;;;;;;;5.400001;4.900001;;;;;;;7.72;100;94594.22;;;;
2022/04/06 01:01:06;;;;;;;5.400001;4.900001;;;;;;;7.72;100;94594.22;;;;
2022/04/06 01:02:07;;;;;;;5.400001;4.900001;;;;;;;7.72;100;94594.22;;;;
2022/04/06 01:03:08;;;;;;;5.400001;4.900001;;;;;;;7.72;100;94594.22;;;;
2022/04/06 01:04:08;;;;;;;5.400001;4.900001;;;;;;;7.72;100;94594.22;;;;
2022/04/06 01:05:09;;;;;;;5.400001;4.900001;;;;;;;7.72;100;94594.22;;;;
2022/04/06 01:06:09;;;;;;;5.400001;4.900001;;;;;;;7.72;100;94594.22;;;;
2022/04/06 01:07:10;;;;;;;5.400001;4.900001;;;;;;;7.72;100;94594.22;;;;
2022/04/06 01:08:12;;;;;;;5.400001;4.900001;;;;;;;7.72;100;94594.22;;;;
2022/04/06 01:09:13;;;;;;;5.799999;5.199999;;;;;;;7.69;100;94588.09;;;;
2022/04/06 01:10:14;;;;;;;5.799999;5.199999;;;;;;;7.69;100;94588.09;;;;
2022/04/06 01:11:15;;;;;;;5.799999;5.199999;;;;;;;7.69;100;94588.09;;;;
2022/04/06 01:12:16;;;;;;;5.799999;5.199999;;;;;;;7.69;100;94588.09;;;;
2022/04/06 01:13:17;;;;;;;5.799999;5.199999;;;;;;;7.69;100;94588.09;;;;
2022/04/06 01:14:18;;;;;;;5.799999;5.199999;;;;;;;7.69;100;94588.09;;;;
2022/04/06 01:15:19;;;;;;;5.799999;5.199999;;;;;;;7.69;100;94588.09;;;;
2022/04/06 01:16:20;;;;;;;5.799999;5.199999;;;;;;;7.69;100;94588.09;;;;
2022/04/06 01:17:20;;;;;;;5.799999;5.199999;;;;;;;7.69;100;94588.09;;;;
2022/04/06 01:18:21;;;;;;;5.799999;5.199999;;;;;;;7.69;100;94588.09;;;;
2022/04/06 01:19:21;;;;;;;5.249999;4.750001;;;;;;;7.77;100;94584.92;;;;
2022/04/06 01:20:22;;;;;;;5.249999;4.750001;;;;;;;7.77;100;94584.92;;;;
2022/04/06 01:21:22;;;;;;;5.249999;4.750001;;;;;;;7.77;100;94584.92;;;;
2022/04/06 01:22:23;;;;;;;5.249999;4.750001;;;;;;;7.77;100;94584.92;;;;
2022/04/06 01:23:23;;;;;;;5.249999;4.750001;;;;;;;7.77;100;94584.92;;;;
2022/04/06 01:24:24;;;;;;;5.249999;4.750001;;;;;;;7.77;100;94584.92;;;;
2022/04/06 01:25:26;;;;;;;5.249999;4.750001;;;;;;;7.77;100;94584.92;;;;
2022/04/06 01:26:26;;;;;;;5.249999;4.750001;;;;;;;7.77;100;94584.92;;;;
2022/04/06 01:27:27;;;;;;;5.249999;4.750001;;;;;;;7.77;100;94584.92;;;;
2022/04/06 01:28:28;;;;;;;5.249999;4.750001;;;;;;;7.77;100;94584.92;;;;
2022/04/06 01:29:28;;;;;;;5.249999;4.750001;;;;;;;7.77;100;94584.92;;;;
2022/04/06 01:30:29;;;;;;;6.05;5.05;;;;;;;7.89;100;94577.79;;;;
2022/04/06 01:31:30;;;;;;;6.05;5.05;;;;;;;7.89;100;94577.79;;;;
2022/04/06 01:32:32;;;;;;;6.05;5.05;;;;;;;7.89;100;94577.79;;;;
2022/04/06 01:33:33;;;;;;;6.05;5.05;;;;;;;7.89;100;94577.79;;;;
2022/04/06 01:34:34;;;;;;;6.05;5.05;;;;;;;7.89;100;94577.79;;;;
2022/04/06 01:35:36;;;;;;;6.05;5.05;;;;;;;7.89;100;94577.79;;;;
2022/04/06 01:36:37;;;;;;;6.05;5.05;;;;;;;7.89;100;94577.79;;;;
2022/04/06 01:37:37;;;;;;;6.05;5.05;;;;;;;7.89;100;94577.79;;;;
2022/04/06 01:38:38;;;;;;;6.05;5.05;;;;;;;7.89;100;94577.79;;;;
2022/04/06 01:39:38;;;;;;;6.05;5.05;;;;;;;7.89;100;94577.79;;;;
2022/04/06 01:40:40;;;;;;;4.900001;4.25;;;;;;;7.92;100;94581.75;;;;
2022/04/06 01:41:40;;;;;;;4.900001;4.25;;;;;;;7.92;100;94581.75;;;;
2022/04/06 01:42:41;;;;;;;4.900001;4.25;;;;;;;7.92;100;94581.75;;;;
2022/04/06 01:43:42;;;;;;;4.900001;4.25;;;;;;;7.92;100;94581.75;;;;
2022/04/06 01:44:44;;;;;;;4.900001;4.25;;;;;;;7.92;100;94581.75;;;;
2022/04/06 01:45:47;;;;;;;4.900001;4.25;;;;;;;7.92;100;94581.75;;;;
2022/04/06 01:46:48;;;;;;;4.900001;4.25;;;;;;;7.92;100;94581.75;;;;
2022/04/06 01:47:48;;;;;;;4.900001;4.25;;;;;;;7.92;100;94581.75;;;;
2022/04/06 01:53:50;;;;;;;5.15;4.65;;;;;;;7.93;100;94574.79;;;;
2022/04/06 01:54:50;;;;;;;5.15;4.65;;;;;;;7.93;100;94574.79;;;;
2022/04/06 01:55:53;;;;;;;5.15;4.65;;;;;;;7.93;100;94574.79;;;;
2022/04/06 01:56:55;;;;;;;5.15;4.65;;;;;;;7.93;100;94574.79;;;;
2022/04/06 01:57:56;;;;;;;5.15;4.65;;;;;;;7.93;100;94574.79;;;;
2022/04/06 01:58:57;;;;;;;5.15;4.65;;;;;;;7.93;100;94574.79;;;;
2022/04/06 01:59:57;;;;;;;5.15;4.65;;;;;;;7.93;100;94574.79;;;;
2022/04/06 02:00:58;;;;;;;5.15;4.65;;;;;;;7.93;100;94574.79;;;;
2022/04/06 02:01:59;;;;;;;5.749999;4.4;;;;;;;8.01;100;94564.2;;;;
2022/04/06 02:03:00;;;;;;;5.749999;4.4;;;;;;;8.01;100;94564.2;;;;
2022/04/06 02:04:01;;;;;;;5.749999;4.4;;;;;;;8.01;100;94564.2;;;;
2022/04/06 02:05:01;;;;;;;5.749999;4.4;;;;;;;8.01;100;94564.2;;;;
2022/04/06 02:06:02;;;;;;;5.749999;4.4;;;;;;;8.01;100;94564.2;;;;
2022/04/06 02:07:03;;;;;;;5.749999;4.4;;;;;;;8.01;100;94564.2;;;;
2022/04/06 02:08:04;;;;;;;5.749999;4.4;;;;;;;8.01;100;94564.2;;;;
2022/04/06 02:09:04;;;;;;;5.749999;4.4;;;;;;;8.01;100;94564.2;;;;
2022/04/06 02:10:05;;;;;;;5.749999;4.4;;;;;;;8.01;100;94564.2;;;;
2022/04/06 02:11:07;;;;;;;5.749999;4.4;;;;;;;8.01;100;94564.2;;;;
2022/04/06 02:12:07;;;;;;;5.749999;4.4;;;;;;;8.01;100;94564.2;;;;
2022/04/06 02:13:11;;;;;;;4.400001;4;;;;;;;8.05;100;94551.1;;;;
2022/04/06 02:14:13;;;;;;;4.400001;4;;;;;;;8.05;100;94551.1;;;;
2022/04/06 02:15:14;;;;;;;4.400001;4;;;;;;;8.05;100;94551.1;;;;
2022/04/06 02:16:15;;;;;;;4.400001;4;;;;;;;8.05;100;94551.1;;;;
2022/04/06 02:17:16;;;;;;;4.400001;4;;;;;;;8.05;100;94551.1;;;;
2022/04/06 02:18:16;;;;;;;4.400001;4;;;;;;;8.05;100;94551.1;;;;
2022/04/06 02:19:17;;;;;;;4.400001;4;;;;;;;8.05;100;94551.1;;;;
2022/04/06 02:20:17;;;;;;;4.400001;4;;;;;;;8.05;100;94551.1;;;;
2022/04/06 02:21:18;;;;;;;4.400001;4;;;;;;;8.05;100;94551.1;;;;
2022/04/06 02:22:19;;;;;;;4.400001;4;;;;;;;8.05;100;94551.1;;;;
2022/04/06 02:23:20;;;;;;;5.1;4.25;;;;;;;8.03;100;94543.8;;;;
2022/04/06 02:24:20;;;;;;;5.1;4.25;;;;;;;8.03;100;94543.8;;;;
2022/04/06 02:25:21;;;;;;;5.1;4.25;;;;;;;8.03;100;94543.8;;;;
2022/04/06 02:26:21;;;;;;;5.1;4.25;;;;;;;8.03;100;94543.8;;;;
2022/04/06 02:27:22;;;;;;;5.1;4.25;;;;;;;8.03;100;94543.8;;;;
2022/04/06 02:28:22;;;;;;;5.1;4.25;;;;;;;8.03;100;94543.8;;;;
2022/04/06 02:29:23;;;;;;;5.1;4.25;;;;;;;8.03;100;94543.8;;;;
2022/04/06 02:30:23;;;;;;;5.1;4.25;;;;;;;8.03;100;94543.8;;;;
2022/04/06 02:31:24;;;;;;;5.1;4.25;;;;;;;8.03;100;94543.8;;;;
2022/04/06 02:32:25;;;;;;;5.1;4.25;;;;;;;8.03;100;94543.8;;;;
2022/04/06 02:33:25;;;;;;;5.1;4.25;;;;;;;8.03;100;94543.8;;;;
2022/04/06 02:34:26;;;;;;;5.05;3.8;;;;;;;7.98;100;94545.87;;;;
2022/04/06 02:35:26;;;;;;;5.05;3.8;;;;;;;7.98;100;94545.87;;;;
2022/04/06 02:36:27;;;;;;;5.05;3.8;;;;;;;7.98;100;94545.87;;;;
2022/04/06 02:37:27;;;;;;;5.05;3.8;;;;;;;7.98;100;94545.87;;;;
2022/04/06 02:38:27;;;;;;;5.05;3.8;;;;;;;7.98;100;94545.87;;;;
2022/04/06 02:39:28;;;;;;;5.05;3.8;;;;;;;7.98;100;94545.87;;;;
2022/04/06 02:40:30;;;;;;;5.05;3.8;;;;;;;7.98;100;94545.87;;;;
2022/04/06 02:41:30;;;;;;;5.05;3.8;;;;;;;7.98;100;94545.87;;;;
2022/04/06 02:42:31;;;;;;;5.05;3.8;;;;;;;7.98;100;94545.87;;;;
2022/04/06 02:43:31;;;;;;;5.05;3.8;;;;;;;7.98;100;94545.87;;;;
2022/04/06 02:44:32;;;;;;;4.35;3.6;;;;;;;7.95;100;94532.92;;;;
2022/04/06 02:45:32;;;;;;;4.35;3.6;;;;;;;7.95;100;94532.92;;;;
2022/04/06 02:46:33;;;;;;;4.35;3.6;;;;;;;7.95;100;94532.92;;;;
2022/04/06 02:47:34;;;;;;;4.35;3.6;;;;;;;7.95;100;94532.92;;;;
2022/04/06 02:48:34;;;;;;;4.35;3.6;;;;;;;7.95;100;94532.92;;;;
2022/04/06 02:49:35;;;;;;;4.35;3.6;;;;;;;7.95;100;94532.92;;;;
2022/04/06 02:50:35;;;;;;;4.35;3.6;;;;;;;7.95;100;94532.92;;;;
2022/04/06 02:51:36;;;;;;;4.35;3.6;;;;;;;7.95;100;94532.92;;;;
2022/04/06 02:52:36;;;;;;;4.35;3.6;;;;;;;7.95;100;94532.92;;;;
2022/04/06 02:53:37;;;;;;;4.35;3.6;;;;;;;7.95;100;94532.92;;;;
2022/04/06 02:54:37;;;;;;;4.35;3.6;;;;;;;7.95;100;94532.92;;;;
2022/04/06 02:55:38;;;;;;;4.5;3.55;;;;;;;7.84;100;94523.42;;;;
2022/04/06 02:56:38;;;;;;;4.5;3.55;;;;;;;7.84;100;94523.42;;;;
2022/04/06 02:57:39;;;;;;;4.5;3.55;;;;;;;7.84;100;94523.42;;;;
2022/04/06 02:58:40;;;;;;;4.5;3.55;;;;;;;7.84;100;94523.42;;;;
2022/04/06 02:59:40;;;;;;;4.5;3.55;;;;;;;7.84;100;94523.42;;;;
2022/04/06 03:00:41;;;;;;;4.5;3.55;;;;;;;7.84;100;94523.42;;;;
2022/04/06 03:01:41;;;;;;;4.5;3.55;;;;;;;7.84;100;94523.42;;;;
2022/04/06 03:02:42;;;;;;;4.5;3.55;;;;;;;7.84;100;94523.42;;;;
2022/04/06 03:03:43;;;;;;;4.5;3.55;;;;;;;7.84;100;94523.42;;;;
2022/04/06 03:04:43;;;;;;;4.5;3.55;;;;;;;7.84;100;94523.42;;;;
2022/04/06 03:05:44;;;;;;;4.5;3.55;;;;;;;7.84;100;94523.42;;;;
2022/04/06 03:06:44;;;;;;;3.7;3.05;;;;;;;7.69;100;94516.89;;;;
2022/04/06 03:07:45;;;;;;;3.7;3.05;;;;;;;7.69;100;94516.89;;;;
2022/04/06 03:08:45;;;;;;;3.7;3.05;;;;;;;7.69;100;94516.89;;;;
2022/04/06 03:09:45;;;;;;;3.7;3.05;;;;;;;7.69;100;94516.89;;;;
2022/04/06 03:10:46;;;;;;;3.7;3.05;;;;;;;7.69;100;94516.89;;;;
2022/04/06 03:11:47;;;;;;;3.7;3.05;;;;;;;7.69;100;94516.89;;;;
2022/04/06 03:12:47;;;;;;;3.7;3.05;;;;;;;7.69;100;94516.89;;;;
2022/04/06 03:13:49;;;;;;;3.7;3.05;;;;;;;7.69;100;94516.89;;;;
2022/04/06 03:14:50;;;;;;;3.7;3.05;;;;;;;7.69;100;94516.89;;;;
2022/04/06 03:15:50;;;;;;;3.7;3.05;;;;;;;7.69;100;94516.89;;;;
2022/04/06 03:16:51;;;;;;;3.25;2.9;;;;;;;7.6;100;94505.7;;;;
2022/04/06 03:17:52;;;;;;;3.25;2.9;;;;;;;7.6;100;94505.7;;;;
2022/04/06 03:18:52;;;;;;;3.25;2.9;;;;;;;7.6;100;94505.7;;;;
2022/04/06 03:19:53;;;;;;;3.25;2.9;;;;;;;7.6;100;94505.7;;;;
2022/04/06 03:20:53;;;;;;;3.25;2.9;;;;;;;7.6;100;94505.7;;;;
2022/04/06 03:21:54;;;;;;;3.25;2.9;;;;;;;7.6;100;94505.7;;;;
2022/04/06 03:22:54;;;;;;;3.25;2.9;;;;;;;7.6;100;94505.7;;;;
2022/04/06 03:23:55;;;;;;;3.25;2.9;;;;;;;7.6;100;94505.7;;;;
2022/04/06 03:24:55;;;;;;;3.25;2.9;;;;;;;7.6;100;94505.7;;;;
2022/04/06 03:25:56;;;;;;;3.25;2.9;;;;;;;7.6;100;94505.7;;;;
2022/04/06 03:26:56;;;;;;;3.25;2.9;;;;;;;7.6;100;94505.7;;;;
2022/04/06 03:27:57;;;;;;;3.05;2.45;;;;;;;7.48;100;94483.95;;;;
2022/04/06 03:28:57;;;;;;;3.05;2.45;;;;;;;7.48;100;94483.95;;;;
2022/04/06 03:29:58;;;;;;;3.05;2.45;;;;;;;7.48;100;94483.95;;;;
2022/04/06 03:30:58;;;;;;;3.05;2.45;;;;;;;7.48;100;94483.95;;;;
2022/04/06 03:31:59;;;;;;;3.05;2.45;;;;;;;7.48;100;94483.95;;;;
2022/04/06 03:32:59;;;;;;;3.05;2.45;;;;;;;7.48;100;94483.95;;;;
2022/04/06 03:34:00;;;;;;;3.05;2.45;;;;;;;7.48;100;94483.95;;;;
2022/04/06 03:35:01;;;;;;;3.05;2.45;;;;;;;7.48;100;94483.95;;;;
2022/04/06 03:36:02;;;;;;;3.05;2.45;;;;;;;7.48;100;94483.95;;;;
2022/04/06 03:37:03;;;;;;;3.05;2.45;;;;;;;7.48;100;94483.95;;;;
2022/04/06 03:38:05;;;;;;;3.4;2.8;;;;;;;7.04;100;94483.62;;;;
2022/04/06 03:39:05;;;;;;;3.4;2.8;;;;;;;7.04;100;94483.62;;;;
2022/04/06 03:40:05;;;;;;;3.4;2.8;;;;;;;7.04;100;94483.62;;;;
2022/04/06 03:41:10;;;;;;;3.4;2.8;;;;;;;7.04;100;94483.62;;;;
2022/04/06 03:42:11;;;;;;;3.4;2.8;;;;;;;7.04;100;94483.62;;;;
2022/04/06 03:43:11;;;;;;;3.4;2.8;;;;;;;7.04;100;94483.62;;;;
2022/04/06 03:44:12;;;;;;;3.4;2.8;;;;;;;7.04;100;94483.62;;;;
2022/04/06 03:45:12;;;;;;;3.4;2.8;;;;;;;7.04;100;94483.62;;;;
2022/04/06 03:46:14;;;;;;;3.4;2.8;;;;;;;7.04;100;94483.62;;;;
2022/04/06 03:47:14;;;;;;;3.4;2.8;;;;;;;7.04;100;94483.62;;;;
2022/04/06 03:48:15;;;;;;;3.4;2.8;;;;;;;7.04;100;94483.62;;;;
2022/04/06 03:49:16;;;;;;;3.6;2.85;;;;;;;6.55;100;94487.96;;;;
2022/04/06 03:50:17;;;;;;;3.6;2.85;;;;;;;6.55;100;94487.96;;;;
2022/04/06 03:51:17;;;;;;;3.6;2.85;;;;;;;6.55;100;94487.96;;;;
2022/04/06 03:52:18;;;;;;;3.6;2.85;;;;;;;6.55;100;94487.96;;;;
2022/04/06 03:53:18;;;;;;;3.6;2.85;;;;;;;6.55;100;94487.96;;;;
2022/04/06 03:54:19;;;;;;;3.6;2.85;;;;;;;6.55;100;94487.96;;;;
2022/04/06 03:55:19;;;;;;;3.6;2.85;;;;;;;6.55;100;94487.96;;;;
2022/04/06 03:56:20;;;;;;;3.6;2.85;;;;;;;6.55;100;94487.96;;;;
2022/04/06 03:57:21;;;;;;;3.6;2.85;;;;;;;6.55;100;94487.96;;;;
2022/04/06 03:58:21;;;;;;;3.6;2.85;;;;;;;6.55;100;94487.96;;;;
2022/04/06 03:59:22;;;;;;;3.55;3.05;;;;;;;6.11;100;94482.67;;;;
2022/04/06 04:00:22;;;;;;;3.55;3.05;;;;;;;6.11;100;94482.67;;;;
2022/04/06 04:01:23;;;;;;;3.55;3.05;;;;;;;6.11;100;94482.67;;;;
2022/04/06 04:02:24;;;;;;;3.55;3.05;;;;;;;6.11;100;94482.67;;;;
2022/04/06 04:03:24;;;;;;;3.55;3.05;;;;;;;6.11;100;94482.67;;;;
2022/04/06 04:04:28;;;;;;;3.55;3.05;;;;;;;6.11;100;94482.67;;;;
2022/04/06 04:05:28;;;;;;;3.55;3.05;;;;;;;6.11;100;94482.67;;;;
2022/04/06 04:06:29;;;;;;;3.55;3.05;;;;;;;6.11;100;94482.67;;;;
2022/04/06 04:07:29;;;;;;;3.55;3.05;;;;;;;6.11;100;94482.67;;;;
2022/04/06 04:08:31;;;;;;;3.55;3.05;;;;;;;6.11;100;94482.67;;;;
2022/04/06 04:09:31;;;;;;;3.55;3.05;;;;;;;6.11;100;94482.67;;;;
2022/04/06 04:10:32;;;;;;;4.1;3.5;;;;;;;5.92;100;94467.69;;;;
2022/04/06 04:11:33;;;;;;;4.1;3.5;;;;;;;5.92;100;94467.69;;;;
2022/04/06 04:12:34;;;;;;;4.1;3.5;;;;;;;5.92;100;94467.69;;;;
2022/04/06 04:13:35;;;;;;;4.1;3.5;;;;;;;5.92;100;94467.69;;;;
2022/04/06 04:14:35;;;;;;;4.1;3.5;;;;;;;5.92;100;94467.69;;;;
2022/04/06 04:15:36;;;;;;;4.1;3.5;;;;;;;5.92;100;94467.69;;;;
2022/04/06 04:16:36;;;;;;;4.1;3.5;;;;;;;5.92;100;94467.69;;;;
2022/04/06 04:17:37;;;;;;;4.1;3.5;;;;;;;5.92;100;94467.69;;;;
2022/04/06 04:18:37;;;;;;;4.1;3.5;;;;;;;5.92;100;94467.69;;;;
2022/04/06 04:19:38;;;;;;;4.1;3.5;;;;;;;5.92;100;94467.69;;;;
2022/04/06 04:20:41;;;;;;;4.1;3.5;;;;;;;5.92;100;94467.69;;;;
2022/04/06 04:21:42;;;;;;;4;3.35;;;;;;;6.07;100;94464.48;;;;
2022/04/06 04:22:43;;;;;;;4;3.35;;;;;;;6.07;100;94464.48;;;;
2022/04/06 04:23:43;;;;;;;4;3.35;;;;;;;6.07;100;94464.48;;;;
2022/04/06 04:24:44;;;;;;;4;3.35;;;;;;;6.07;100;94464.48;;;;
2022/04/06 04:25:44;;;;;;;4;3.35;;;;;;;6.07;100;94464.48;;;;
2022/04/06 04:26:44;;;;;;;4;3.35;;;;;;;6.07;100;94464.48;;;;
2022/04/06 04:27:45;;;;;;;4;3.35;;;;;;;6.07;100;94464.48;;;;
2022/04/06 04:28:45;;;;;;;4;3.35;;;;;;;6.07;100;94464.48;;;;
2022/04/06 04:29:46;;;;;;;4;3.35;;;;;;;6.07;100;94464.48;;;;
2022/04/06 04:30:46;;;;;;;4;3.35;;;;;;;6.07;100;94464.48;;;;
2022/04/06 04:31:47;;;;;;;4;3.35;;;;;;;6.07;100;94464.48;;;;
2022/04/06 04:32:47;;;;;;;4;3.35;;;;;;;6.07;100;94464.48;;;;
2022/04/06 04:33:48;;;;;;;4;3.35;;;;;;;6.07;100;94464.48;;;;
2022/04/06 04:34:49;;;;;;;4;3.35;;;;;;;6.07;100;94464.48;;;;
2022/04/06 04:35:49;;;;;;;4;3.35;;;;;;;6.07;100;94464.48;;;;
2022/04/06 04:36:50;;;;;;;4;3.35;;;;;;;6.07;100;94464.48;;;;
2022/04/06 04:37:51;;;;;;;4;3.35;;;;;;;6.07;100;94464.48;;;;
2022/04/06 04:38:52;;;;;;;4;3.35;;;;;;;6.07;100;94464.48;;;;
2022/04/06 04:39:52;;;;;;;4;3.35;;;;;;;6.07;100;94464.48;;;;
2022/04/06 04:40:54;;;;;;;4;3.35;;;;;;;6.07;100;94464.48;;;;
2022/04/06 04:41:55;;;;;;;4;3.35;;;;;;;6.07;100;94464.48;;;;
2022/04/06 04:42:55;;;;;;;3.9;3.35;;;;;;;6.62;100;94463.73;;;;
2022/04/06 04:43:56;;;;;;;3.9;3.35;;;;;;;6.62;100;94463.73;;;;
2022/04/06 04:44:57;;;;;;;3.9;3.35;;;;;;;6.62;100;94463.73;;;;
2022/04/06 04:45:57;;;;;;;3.9;3.35;;;;;;;6.62;100;94463.73;;;;
2022/04/06 04:46:58;;;;;;;3.9;3.35;;;;;;;6.62;100;94463.73;;;;
2022/04/06 04:47:59;;;;;;;3.9;3.35;;;;;;;6.62;100;94463.73;;;;
2022/04/06 04:49:00;;;;;;;3.9;3.35;;;;;;;6.62;100;94463.73;;;;
2022/04/06 04:50:00;;;;;;;3.9;3.35;;;;;;;6.62;100;94463.73;;;;
2022/04/06 04:51:01;;;;;;;3.9;3.35;;;;;;;6.62;100;94463.73;;;;
2022/04/06 04:52:02;;;;;;;3.9;3.35;;;;;;;6.62;100;94463.73;;;;
2022/04/06 04:53:05;;;;;;;3.35;3.05;;;;;;;6.86;100;94455.05;;;;
2022/04/06 04:54:05;;;;;;;3.35;3.05;;;;;;;6.86;100;94455.05;;;;
2022/04/06 04:55:06;;;;;;;3.35;3.05;;;;;;;6.86;100;94455.05;;;;
2022/04/06 04:56:07;;;;;;;3.35;3.05;;;;;;;6.86;100;94455.05;;;;
2022/04/06 04:57:09;;;;;;;3.35;3.05;;;;;;;6.86;100;94455.05;;;;
2022/04/06 04:58:09;;;;;;;3.35;3.05;;;;;;;6.86;100;94455.05;;;;
2022/04/06 04:59:10;;;;;;;3.35;3.05;;;;;;;6.86;100;94455.05;;;;
2022/04/06 05:00:10;;;;;;;3.35;3.05;;;;;;;6.86;100;94455.05;;;;
2022/04/06 05:01:12;;;;;;;3.35;3.05;;;;;;;6.86;100;94455.05;;;;
2022/04/06 05:02:12;;;;;;;3.35;3.05;;;;;;;6.86;100;94455.05;;;;
2022/04/06 05:03:13;;;;;;;3.35;3.05;;;;;;;6.86;100;94455.05;;;;
2022/04/06 05:04:14;;;;;;;3.2;2.85;;;;;;;7;100;94456.98;;;;
2022/04/06 05:05:14;;;;;;;3.2;2.85;;;;;;;7;100;94456.98;;;;
2022/04/06 05:06:15;;;;;;;3.2;2.85;;;;;;;7;100;94456.98;;;;
2022/04/06 05:07:16;;;;;;;3.2;2.85;;;;;;;7;100;94456.98;;;;
2022/04/06 05:08:16;;;;;;;3.2;2.85;;;;;;;7;100;94456.98;;;;
2022/04/06 05:09:17;;;;;;;3.2;2.85;;;;;;;7;100;94456.98;;;;
2022/04/06 05:10:18;;;;;;;3.2;2.85;;;;;;;7;100;94456.98;;;;
2022/04/06 05:11:18;;;;;;;3.2;2.85;;;;;;;7;100;94456.98;;;;
2022/04/06 05:12:19;;;;;;;3.2;2.85;;;;;;;7;100;94456.98;;;;
2022/04/06 05:13:20;;;;;;;3.2;2.85;;;;;;;7;100;94456.98;;;;
2022/04/06 05:14:21;;;;;;;4;3.35;;;;;;;7.11;100;94466.36;;;;
2022/04/06 05:15:21;;;;;;;4;3.35;;;;;;;7.11;100;94466.36;;;;
2022/04/06 05:16:22;;;;;;;4;3.35;;;;;;;7.11;100;94466.36;;;;
2022/04/06 05:17:22;;;;;;;4;3.35;;;;;;;7.11;100;94466.36;;;;
2022/04/06 05:18:23;;;;;;;4;3.35;;;;;;;7.11;100;94466.36;;;;
2022/04/06 05:19:23;;;;;;;4;3.35;;;;;;;7.11;100;94466.36;;;;
2022/04/06 05:20:24;;;;;;;4;3.35;;;;;;;7.11;100;94466.36;;;;
2022/04/06 05:21:24;;;;;;;4;3.35;;;;;;;7.11;100;94466.36;;;;
2022/04/06 05:22:25;;;;;;;4;3.35;;;;;;;7.11;100;94466.36;;;;
2022/04/06 05:23:26;;;;;;;4;3.35;;;;;;;7.11;100;94466.36;;;;
2022/04/06 05:24:26;;;;;;;4;3.35;;;;;;;7.11;100;94466.36;;;;
2022/04/06 05:25:27;;;;;;;3.9;3.15;;;;;;;7.24;100;94464.78;;;;
2022/04/06 05:26:27;;;;;;;3.9;3.15;;;;;;;7.24;100;94464.78;;;;
2022/04/06 05:27:28;;;;;;;3.9;3.15;;;;;;;7.24;100;94464.78;;;;
2022/04/06 05:28:29;;;;;;;3.9;3.15;;;;;;;7.24;100;94464.78;;;;
2022/04/06 05:29:29;;;;;;;3.9;3.15;;;;;;;7.24;100;94464.78;;;;
2022/04/06 05:30:30;;;;;;;3.9;3.15;;;;;;;7.24;100;94464.78;;;;
2022/04/06 05:31:31;;;;;;;3.9;3.15;;;;;;;7.24;100;94464.78;;;;
2022/04/06 05:32:31;;;;;;;3.9;3.15;;;;;;;7.24;100;94464.78;;;;
2022/04/06 05:33:32;;;;;;;3.9;3.15;;;;;;;7.24;100;94464.78;;;;
2022/04/06 05:34:34;;;;;;;3.9;3.15;;;;;;;7.24;100;94464.78;;;;
2022/04/06 05:35:34;;;;;;;3.6;3.3;;;;;;;7.35;100;94473.35;;;;
2022/04/06 05:36:35;;;;;;;3.6;3.3;;;;;;;7.35;100;94473.35;;;;
2022/04/06 05:37:35;;;;;;;3.6;3.3;;;;;;;7.35;100;94473.35;;;;
2022/04/06 05:38:36;;;;;;;3.6;3.3;;;;;;;7.35;100;94473.35;;;;
2022/04/06 05:39:37;;;;;;;3.6;3.3;;;;;;;7.35;100;94473.35;;;;
2022/04/06 05:40:37;;;;;;;3.6;3.3;;;;;;;7.35;100;94473.35;;;;
2022/04/06 05:41:38;;;;;;;3.6;3.3;;;;;;;7.35;100;94473.35;;;;
2022/04/06 05:42:38;;;;;;;3.6;3.3;;;;;;;7.35;100;94473.35;;;;
2022/04/06 05:43:39;;;;;;;3.6;3.3;;;;;;;7.35;100;94473.35;;;;
2022/04/06 05:44:39;;;;;;;3.6;3.3;;;;;;;7.35;100;94473.35;;;;
2022/04/06 05:45:40;;;;;;;3.6;3.3;;;;;;;7.35;100;94473.35;;;;
2022/04/06 05:46:40;;;;;;;4.15;3.15;;;;;;;7.62;100;94477.26;;;;
2022/04/06 05:47:42;;;;;;;4.15;3.15;;;;;;;7.62;100;94477.26;;;;
2022/04/06 05:48:42;;;;;;;4.15;3.15;;;;;;;7.62;100;94477.26;;;;
2022/04/06 05:49:43;;;;;;;4.15;3.15;;;;;;;7.62;100;94477.26;;;;
2022/04/06 05:50:44;;;;;;;4.15;3.15;;;;;;;7.62;100;94477.26;;;;
2022/04/06 05:51:44;;;;;;;4.15;3.15;;;;;;;7.62;100;94477.26;;;;
2022/04/06 05:52:45;;;;;;;4.15;3.15;;;;;;;7.62;100;94477.26;;;;
2022/04/06 05:53:45;;;;;;;4.15;3.15;;;;;;;7.62;100;94477.26;;;;
2022/04/06 05:54:46;;;;;;;4.15;3.15;;;;;;;7.62;100;94477.26;;;;
2022/04/06 05:55:47;;;;;;;4.15;3.15;;;;;;;7.62;100;94477.26;;;;
2022/04/06 05:56:48;;;;;;;4.15;3.15;;;;;;;7.62;100;94477.26;;;;
2022/04/06 05:57:48;;;;;;;5;3.85;;;;;;;7.96;100;94479.85;;;;
2022/04/06 05:58:49;;;;;;;5;3.85;;;;;;;7.96;100;94479.85;;;;
2022/04/06 05:59:49;;;;;;;5;3.85;;;;;;;7.96;100;94479.85;;;;
2022/04/06 06:00:50;;;;;;;5;3.85;;;;;;;7.96;100;94479.85;;;;
2022/04/06 06:01:50;;;;;;;5;3.85;;;;;;;7.96;100;94479.85;;;;
2022/04/06 06:02:51;;;;;;;5;3.85;;;;;;;7.96;100;94479.85;;;;
2022/04/06 06:03:52;;;;;;;5;3.85;;;;;;;7.96;100;94479.85;;;;
2022/04/06 06:04:52;;;;;;;5;3.85;;;;;;;7.96;100;94479.85;;;;
2022/04/06 06:05:53;;;;;;;5;3.85;;;;;;;7.96;100;94479.85;;;;
2022/04/06 06:06:53;;;;;;;5;3.85;;;;;;;7.96;100;94479.85;;;;
2022/04/06 06:07:55;;;;;;;4.349999;3.65;;;;;;;8.26;100;94479.63;;;;
2022/04/06 06:08:56;;;;;;;4.349999;3.65;;;;;;;8.26;100;94479.63;;;;
2022/04/06 06:09:57;;;;;;;4.349999;3.65;;;;;;;8.26;100;94479.63;;;;
2022/04/06 06:10:58;;;;;;;4.349999;3.65;;;;;;;8.26;100;94479.63;;;;
2022/04/06 06:11:59;;;;;;;4.349999;3.65;;;;;;;8.26;100;94479.63;;;;
2022/04/06 06:13:00;;;;;;;4.349999;3.65;;;;;;;8.26;100;94479.63;;;;
2022/04/06 06:14:01;;;;;;;4.349999;3.65;;;;;;;8.26;100;94479.63;;;;
2022/04/06 06:15:01;;;;;;;4.349999;3.65;;;;;;;8.26;100;94479.63;;;;
2022/04/06 06:16:03;;;;;;;4.349999;3.65;;;;;;;8.26;100;94479.63;;;;
2022/04/06 06:17:05;;;;;;;4.349999;3.65;;;;;;;8.26;100;94479.63;;;;
2022/04/06 06:18:05;;;;;;;4.349999;3.65;;;;;;;8.26;100;94479.63;;;;
2022/04/06 06:19:06;;;;;;;4.349999;3.65;;;;;;;8.26;100;94479.63;;;;
2022/04/06 06:20:07;;;;;;;4.349999;3.65;;;;;;;8.26;100;94479.63;;;;